Time;durP1;ratioP1;P1;durP2;ratioP2;P2;SDS_P1;SDS_P2;PMS_P1;PMS_P2;Temp;Humidity;BMP_temperature;BMP_pressure;BME280_temperature;BME280_humidity;BME280_pressure;Samples;Min_cycle;Max_cycle;Signal;HPM_P1;HPM_P2
2024/04/03 00:01:59;;;;;;;0.80;0.80;;;;;;;-145.69;57.88;52190.91;5071327;28;20199;-79
2024/04/03 00:04:26;;;;;;;0.70;0.70;;;;;;;-145.69;58.47;52210.72;5072867;28;20233;-79
2024/04/03 00:06:51;;;;;;;1.27;0.90;;;;;;;-145.69;58.20;52242.38;5075087;28;20202;-78
2024/04/03 00:09:19;;;;;;;1.60;1.03;;;;;;;-145.69;58.18;52210.72;5086258;28;20676;-79
2024/04/03 00:11:45;;;;;;;2.77;1.13;;;;;;;-145.69;57.83;52210.72;5072833;28;20210;-79
2024/04/03 00:14:12;;;;;;;1.23;0.73;;;;;;;-145.69;57.96;52228.53;5072734;28;20220;-80
2024/04/03 00:16:37;;;;;;;3.13;0.93;;;;;;;-145.69;57.86;52222.59;5072645;28;20752;-80
2024/04/03 00:19:04;;;;;;;4.63;1.20;;;;;;;-145.69;58.15;52202.78;5072354;28;20194;-79
2024/04/03 00:21:29;;;;;;;2.63;0.93;;;;;;;-145.69;57.93;52204.75;5072620;28;20287;-79
2024/04/03 00:23:56;;;;;;;3.57;0.90;;;;;;;-145.69;58.51;52234.47;5072662;28;20286;-78
2024/04/03 00:26:23;;;;;;;3.47;0.97;;;;;;;-145.69;57.66;52232.50;5072325;28;20653;-79
2024/04/03 00:28:50;;;;;;;2.63;1.00;;;;;;;-145.69;57.79;52274.06;5072115;28;20206;-78
2024/04/03 00:31:16;;;;;;;2.23;1.00;;;;;;;-145.69;58.05;52220.59;5072461;28;20199;-79
2024/04/03 00:33:43;;;;;;;1.90;1.10;;;;;;;-145.69;57.97;52226.53;5072381;28;20205;-78
2024/04/03 00:36:12;;;;;;;3.27;1.00;;;;;;;-145.69;58.41;52248.34;5072505;28;20206;-80
2024/04/03 00:38:41;;;;;;;2.83;0.97;;;;;;;-145.69;57.82;52248.34;5089279;28;20194;-79
2024/04/03 00:41:07;;;;;;;1.70;0.87;;;;;;;-145.69;58.68;52226.53;5079814;28;20201;-79
2024/04/03 00:43:37;;;;;;;2.43;0.87;;;;;;;-145.69;58.18;52238.44;5072280;28;20573;-79
2024/04/03 00:46:05;;;;;;;1.20;1.00;;;;;;;-145.69;58.42;52218.63;5072264;28;20226;-79
2024/04/03 00:48:32;;;;;;;3.57;0.90;;;;;;;-145.69;58.58;52218.63;5072319;28;20301;-79
2024/04/03 00:51:03;;;;;;;4.50;0.90;;;;;;;-145.69;58.57;52206.75;5072429;28;20203;-79
2024/04/03 00:53:40;;;;;;;2.63;1.03;;;;;;;-145.69;59.33;52230.50;5072280;28;20604;-78
2024/04/03 00:56:07;;;;;;;1.87;1.00;;;;;;;-145.69;59.34;52258.22;5070281;28;20577;-79
2024/04/03 00:58:35;;;;;;;5.47;1.50;;;;;;;-145.69;59.96;52236.44;5072464;28;20198;-79
2024/04/03 01:01:06;;;;;;;1.70;0.90;;;;;;;-145.69;59.29;52222.59;5072349;28;20733;-79
2024/04/03 01:03:33;;;;;;;1.77;1.20;;;;;;;-145.69;59.96;52240.41;5071206;28;20278;-79
2024/04/03 01:06:01;;;;;;;1.83;0.80;;;;;;;-145.69;59.46;52222.59;5071363;28;20223;-78
2024/04/03 01:08:27;;;;;;;5.13;1.20;;;;;;;-145.69;59.75;52222.59;5072222;28;20203;-79
2024/04/03 01:10:53;;;;;;;1.30;0.90;;;;;;;-145.69;59.56;52202.78;5071665;28;20662;-79
2024/04/03 01:13:20;;;;;;;2.83;0.87;;;;;;;-145.69;59.62;52222.59;5072086;28;20286;-79
2024/04/03 01:15:47;;;;;;;1.07;0.90;;;;;;;-145.69;59.35;52212.69;5071591;28;20234;-79
2024/04/03 01:18:15;;;;;;;2.57;1.63;;;;;;;-145.69;59.67;52234.47;5084228;28;20285;-80
2024/04/03 01:20:44;;;;;;;1.30;1.10;;;;;;;-145.69;59.56;52250.31;5092003;28;20248;-78
2024/04/03 01:23:12;;;;;;;2.67;0.90;;;;;;;-145.69;59.17;52210.72;5092496;28;20641;-79
2024/04/03 01:25:39;;;;;;;2.20;1.00;;;;;;;-145.69;59.51;52256.25;5092310;28;20248;-79
2024/04/03 01:28:08;;;;;;;3.13;0.93;;;;;;;-145.69;59.98;52198.81;5080376;28;20219;-79
2024/04/03 01:30:36;;;;;;;3.97;1.10;;;;;;;-145.69;59.70;52230.50;5073000;28;20195;-79
2024/04/03 01:33:04;;;;;;;2.77;1.00;;;;;;;-145.69;59.66;52214.66;5075873;28;20205;-79
2024/04/03 01:35:32;;;;;;;5.03;0.90;;;;;;;-145.69;59.80;52226.53;5075921;28;20289;-79
2024/04/03 01:37:58;;;;;;;2.17;0.90;;;;;;;-145.69;59.68;52240.41;5075485;28;20202;-79
2024/04/03 01:40:26;;;;;;;2.57;1.00;;;;;;;-145.69;59.53;52196.84;5075668;28;20273;-79
2024/04/03 01:42:57;;;;;;;2.30;1.00;;;;;;;-145.69;60.14;52224.56;5075711;28;20233;-78
2024/04/03 01:45:26;;;;;;;4.77;1.20;;;;;;;-145.69;59.52;52224.56;5063723;28;20314;-78
2024/04/03 01:47:53;;;;;;;2.00;1.00;;;;;;;-145.69;59.62;52198.81;5064596;28;20195;-79
2024/04/03 01:50:20;;;;;;;3.83;1.00;;;;;;;-145.69;59.32;52192.88;5075699;28;20281;-79
2024/04/03 01:52:49;;;;;;;2.27;1.00;;;;;;;-145.69;59.16;52228.53;5075693;28;20203;-79
2024/04/03 01:55:22;;;;;;;2.10;1.17;;;;;;;-145.69;59.19;52194.88;5074992;28;20206;-80
2024/04/03 01:57:51;;;;;;;4.93;1.20;;;;;;;-145.69;57.96;52234.47;5075267;28;20194;-79
2024/04/03 02:00:18;;;;;;;0.83;0.70;;;;;;;-145.69;57.73;52228.53;5075550;28;20203;-79
2024/04/03 02:02:48;;;;;;;9.50;1.07;;;;;;;-145.69;57.49;52198.81;5075330;28;20757;-80
2024/04/03 02:05:16;;;;;;;1.50;0.97;;;;;;;-145.69;58.31;52226.53;5074554;28;20230;-79
2024/04/03 02:07:47;;;;;;;1.20;1.00;;;;;;;-145.69;58.36;52214.66;5074740;28;20201;-79
2024/04/03 02:10:25;;;;;;;3.30;0.90;;;;;;;-145.69;58.39;52198.81;5074479;28;20260;-78
2024/04/03 02:12:51;;;;;;;3.17;1.13;;;;;;;-145.69;58.31;52202.78;5074533;28;20546;-79
2024/04/03 02:15:24;;;;;;;2.40;0.97;;;;;;;-145.69;58.25;52218.63;5074842;28;20229;-78
2024/04/03 02:18:02;;;;;;;1.23;0.80;;;;;;;-145.69;58.36;52202.78;5075185;28;20221;-79
2024/04/03 02:20:30;;;;;;;1.60;0.90;;;;;;;-145.69;57.61;52196.84;5074759;28;20560;-79
2024/04/03 02:22:59;;;;;;;0.97;0.80;;;;;;;-145.69;57.75;52216.66;5075316;28;20499;-79
2024/04/03 02:25:24;;;;;;;2.63;0.93;;;;;;;-145.69;57.30;52218.63;5075055;28;20313;-79
2024/04/03 02:27:53;;;;;;;1.33;0.87;;;;;;;-145.69;57.75;52188.91;5082507;28;20708;-79
2024/04/03 02:30:28;;;;;;;1.93;1.00;;;;;;;-145.69;57.22;52226.53;5095140;28;20653;-79
2024/04/03 02:32:57;;;;;;;1.10;0.90;;;;;;;-145.69;56.87;52194.88;5094397;28;20209;-80
2024/04/03 02:35:23;;;;;;;0.80;0.80;;;;;;;-145.69;57.09;52218.63;5094806;28;20202;-79
2024/04/03 02:37:51;;;;;;;1.40;0.90;;;;;;;-145.69;56.87;52175.06;5087445;28;20197;-79
2024/04/03 02:40:26;;;;;;;1.27;0.93;;;;;;;-145.69;56.53;52190.91;5074790;28;20215;-79
2024/04/03 02:42:53;;;;;;;1.00;0.80;;;;;;;-145.69;56.14;52226.53;5073309;28;20194;-78
2024/04/03 02:45:20;;;;;;;2.67;0.80;;;;;;;-145.69;56.22;52179.03;5074190;28;20277;-79
2024/04/03 02:48:00;;;;;;;3.00;1.00;;;;;;;-145.69;56.40;52224.56;5074313;28;20195;-79
2024/04/03 02:50:28;;;;;;;1.73;0.90;;;;;;;-145.69;56.27;52159.22;5074503;28;20198;-79
2024/04/03 02:53:04;;;;;;;0.97;0.70;;;;;;;-145.69;55.92;52179.03;5074481;28;20199;-79
2024/04/03 02:55:36;;;;;;;3.63;0.87;;;;;;;-145.69;55.46;52200.81;5074488;28;20198;-79
2024/04/03 02:58:06;;;;;;;1.53;0.70;;;;;;;-145.69;55.42;52214.66;5074528;28;20183;-80
2024/04/03 03:00:34;;;;;;;4.77;1.00;;;;;;;-145.69;55.31;52208.72;5074023;28;20206;-78
2024/04/03 03:03:10;;;;;;;3.17;0.73;;;;;;;-145.69;55.50;52230.50;5072019;28;20230;-79
2024/04/03 03:05:35;;;;;;;0.80;0.80;;;;;;;-145.69;55.68;52202.78;5074076;28;20317;-78
2024/04/03 03:08:03;;;;;;;0.93;0.90;;;;;;;-145.69;55.53;52196.84;5074057;28;20701;-79
2024/04/03 03:10:34;;;;;;;3.97;0.60;;;;;;;-145.69;55.56;52216.66;5074127;28;20205;-79
2024/04/03 03:13:06;;;;;;;0.93;0.80;;;;;;;-145.69;55.91;52198.81;5073861;28;20199;-79
2024/04/03 03:15:46;;;;;;;3.43;0.90;;;;;;;-145.69;55.66;52222.59;5074006;28;20203;-79
2024/04/03 03:18:31;;;;;;;0.60;0.60;;;;;;;-145.69;54.93;52202.78;5065192;28;20186;-79
2024/04/03 03:21:07;;;;;;;1.07;0.90;;;;;;;-145.69;55.39;52186.94;5073648;28;20219;-79
2024/04/03 03:23:39;;;;;;;1.83;0.93;;;;;;;-145.69;55.29;52184.97;5073659;28;20632;-79
2024/04/03 03:26:11;;;;;;;0.97;0.80;;;;;;;-145.69;54.82;52179.03;5073866;28;20238;-79
2024/04/03 03:28:39;;;;;;;1.27;0.73;;;;;;;-145.69;55.14;52186.94;5073306;28;20650;-79
2024/04/03 03:31:06;;;;;;;0.77;0.70;;;;;;;-145.69;55.15;52200.81;5073829;28;20199;-80
2024/04/03 03:33:48;;;;;;;2.57;0.90;;;;;;;-145.69;55.23;52192.88;5072651;28;20245;-79
2024/04/03 03:36:13;;;;;;;2.40;0.70;;;;;;;-145.69;55.52;52220.59;5073593;28;20212;-79
2024/04/03 03:38:42;;;;;;;3.17;0.60;;;;;;;-145.69;55.66;52210.72;5073302;28;20282;-79
2024/04/03 03:41:15;;;;;;;2.57;1.00;;;;;;;-145.69;55.97;52204.75;5073338;28;20210;-80
2024/04/03 03:43:52;;;;;;;4.57;1.00;;;;;;;-145.69;55.87;52186.94;5071447;28;20750;-80
2024/04/03 03:54:35;;;;;;;0.80;0.80;;;;;;;-145.69;55.11;52222.59;5072675;28;20228;-79
2024/04/03 03:57:06;;;;;;;1.03;0.90;;;;;;;-145.69;55.63;52190.91;5073460;28;20222;-79
2024/04/03 03:59:41;;;;;;;0.90;0.70;;;;;;;-145.69;55.19;52222.59;5072818;28;20294;-79
2024/04/03 04:02:16;;;;;;;2.30;0.80;;;;;;;-145.69;55.54;52218.63;5072539;28;20229;-79
2024/04/03 04:04:48;;;;;;;2.03;0.90;;;;;;;-145.69;55.49;52202.78;5072901;28;20596;-79
2024/04/03 04:07:17;;;;;;;1.33;0.80;;;;;;;-145.69;55.40;52204.75;5072912;28;20235;-79
2024/04/03 04:09:51;;;;;;;5.03;0.83;;;;;;;-145.69;55.49;52202.78;5073089;28;20221;-80
2024/04/03 04:12:20;;;;;;;0.83;0.77;;;;;;;-145.69;55.36;52177.03;5073029;28;20221;-79
2024/04/03 04:14:53;;;;;;;0.90;0.90;;;;;;;-145.69;55.07;52167.13;5072303;28;20199;-79
2024/04/03 04:17:26;;;;;;;3.80;1.10;;;;;;;-145.69;54.54;52198.81;5072093;28;20258;-79
2024/04/03 04:19:55;;;;;;;1.10;0.60;;;;;;;-145.69;54.35;52188.91;5072725;28;20210;-78
2024/04/03 04:22:23;;;;;;;1.77;0.70;;;;;;;-145.69;55.09;52186.94;5072538;28;20323;-79
2024/04/03 04:25:04;;;;;;;0.70;0.67;;;;;;;-145.69;54.83;52159.22;5072236;28;20199;-80
2024/04/03 04:27:47;;;;;;;0.73;0.70;;;;;;;-145.69;54.91;52151.28;5072607;28;20220;-79
2024/04/03 04:30:17;;;;;;;4.00;0.90;;;;;;;-145.69;54.53;52196.84;5072574;28;20209;-78
2024/04/03 04:32:50;;;;;;;1.00;0.67;;;;;;;-145.69;54.93;52234.47;5072713;28;20627;-79
2024/04/03 04:35:31;;;;;;;3.40;1.10;;;;;;;-145.69;55.13;52206.75;5072260;28;20221;-79
2024/04/03 04:37:59;;;;;;;3.40;1.00;;;;;;;-145.69;55.59;52181.00;5072525;28;20202;-79
2024/04/03 04:40:28;;;;;;;1.63;0.70;;;;;;;-145.69;55.21;52190.91;5072533;28;20231;-79
2024/04/03 04:43:03;;;;;;;0.60;0.60;;;;;;;-145.69;54.86;52192.88;5072871;28;20199;-79
2024/04/03 04:45:46;;;;;;;1.67;0.80;;;;;;;-145.69;55.23;52179.03;5072159;28;20233;-79
2024/04/03 04:48:14;;;;;;;4.10;0.97;;;;;;;-145.69;55.16;52206.75;5070783;28;20698;-79
2024/04/03 04:50:51;;;;;;;0.93;0.70;;;;;;;-145.69;54.48;52198.81;5072314;28;20191;-79
2024/04/03 04:53:20;;;;;;;2.63;1.10;;;;;;;-145.69;53.99;52190.91;5072553;28;20206;-80
2024/04/03 04:56:06;;;;;;;1.63;0.80;;;;;;;-145.69;53.73;52196.84;5071754;28;20681;-78
2024/04/03 04:58:42;;;;;;;1.07;0.90;;;;;;;-145.69;53.35;52163.19;5072250;28;20203;-79
2024/04/03 05:01:16;;;;;;;1.07;0.97;;;;;;;-145.69;53.05;52214.66;5070076;28;20198;-80
2024/04/03 05:03:44;;;;;;;2.60;0.60;;;;;;;-145.69;53.68;52179.03;5072633;28;20263;-79
2024/04/03 05:06:14;;;;;;;2.03;0.70;;;;;;;-145.69;53.30;52224.56;5074071;28;20219;-79
2024/04/03 05:08:41;;;;;;;2.03;0.73;;;;;;;-145.69;53.42;52188.91;5075627;28;20191;-78
2024/04/03 05:11:19;;;;;;;2.20;0.80;;;;;;;-145.69;53.17;52173.09;5075585;28;20620;-79
2024/04/03 05:13:51;;;;;;;0.77;0.77;;;;;;;-145.69;51.58;52192.88;5076156;28;20198;-79
2024/04/03 05:16:20;;;;;;;0.60;0.60;;;;;;;-145.69;51.98;52214.66;5075839;28;20230;-78
2024/04/03 05:21:35;;;;;;;2.00;0.77;;;;;;;-145.69;51.32;52196.84;5077431;28;20199;-78
2024/04/03 05:24:09;;;;;;;0.83;0.80;;;;;;;-145.69;50.20;52188.91;5076144;28;20214;-79
2024/04/03 05:26:39;;;;;;;0.90;0.60;;;;;;;-145.69;49.56;52218.63;5075403;28;20688;-79
2024/04/03 05:29:07;;;;;;;1.47;0.70;;;;;;;-145.69;50.34;52190.91;5075922;28;20199;-79
2024/04/03 05:31:38;;;;;;;2.83;0.90;;;;;;;-145.69;49.86;52177.03;5075794;28;20857;-79
2024/04/03 05:34:07;;;;;;;1.93;0.70;;;;;;;-145.69;50.61;52157.25;5075700;28;20199;-79
2024/04/03 05:36:54;;;;;;;2.80;0.60;;;;;;;-145.69;49.19;52186.94;5075994;28;20199;-78
2024/04/03 05:39:30;;;;;;;2.10;0.90;;;;;;;-145.69;50.34;52169.13;5075718;28;20198;-78
2024/04/03 05:42:06;;;;;;;1.17;0.80;;;;;;;-145.69;50.50;52175.06;5075434;28;20228;-78
2024/04/03 05:44:43;;;;;;;2.50;0.80;;;;;;;-145.69;50.24;52186.94;5075455;28;20203;-79
2024/04/03 05:47:21;;;;;;;1.63;0.70;;;;;;;-145.69;49.69;52198.81;5075639;28;20249;-78
2024/04/03 05:49:52;;;;;;;2.00;0.80;;;;;;;-145.69;49.20;52192.88;5075423;28;20709;-79
2024/04/03 05:52:27;;;;;;;6.47;0.80;;;;;;;-145.69;48.04;52179.03;5075755;28;20211;-77
2024/04/03 05:54:56;;;;;;;1.73;0.73;;;;;;;-145.69;47.63;52167.13;5072095;28;20187;-78
2024/04/03 05:57:25;;;;;;;2.03;0.90;;;;;;;-145.69;48.20;52175.06;5075708;28;20207;-79
2024/04/03 05:59:57;;;;;;;2.23;0.90;;;;;;;-145.69;48.44;52135.47;5075489;28;20195;-79
2024/04/03 06:02:34;;;;;;;2.30;0.70;;;;;;;-145.69;48.08;52175.06;5075015;28;20195;-80
2024/04/03 06:05:12;;;;;;;1.30;0.70;;;;;;;-145.69;48.11;52169.13;5075141;28;20714;-79
2024/04/03 06:07:42;;;;;;;2.93;0.70;;;;;;;-145.69;48.34;52181.00;5075005;28;20191;-79
2024/04/03 06:10:19;;;;;;;2.40;0.73;;;;;;;-145.69;47.44;52173.09;5074975;28;20252;-79
2024/04/03 06:12:46;;;;;;;4.10;1.10;;;;;;;-145.69;47.79;52171.09;5075444;28;20209;-79
2024/04/03 06:15:14;;;;;;;2.77;0.80;;;;;;;-145.69;48.04;52155.25;5075056;28;20199;-79
2024/04/03 06:17:49;;;;;;;1.97;0.77;;;;;;;-145.69;46.84;52145.34;5074478;28;20326;-79
2024/04/03 06:20:28;;;;;;;1.47;0.90;;;;;;;-145.69;46.69;52184.97;5075312;28;20222;-79
2024/04/03 06:23:24;;;;;;;1.30;0.90;;;;;;;-145.69;47.37;52139.41;5075088;28;20226;-78
2024/04/03 06:25:54;;;;;;;2.23;0.80;;;;;;;-145.69;47.79;52143.38;5074264;28;20692;-80
2024/04/03 06:28:20;;;;;;;2.67;0.80;;;;;;;-145.69;46.93;52153.28;5074836;28;20195;-80
2024/04/03 06:30:57;;;;;;;3.50;0.90;;;;;;;-145.69;44.09;52163.19;5074746;28;20210;-80
2024/04/03 06:33:23;;;;;;;1.37;0.60;;;;;;;-145.69;43.00;52141.41;5075047;28;20195;-80
2024/04/03 06:36:03;;;;;;;1.57;0.70;;;;;;;-145.69;44.30;52177.03;5074591;28;20286;-80
2024/04/03 06:38:31;;;;;;;2.00;1.00;;;;;;;-145.69;44.87;52143.38;5074401;28;20198;-81
2024/04/03 06:41:06;;;;;;;3.53;0.90;;;;;;;-145.69;46.43;52184.97;5074902;28;20195;-79
2024/04/03 06:43:34;;;;;;;2.50;0.80;;;;;;;-145.69;47.33;52182.97;5074494;28;20285;-79
2024/04/03 06:46:17;;;;;;;1.53;0.90;;;;;;;-145.69;46.70;52145.34;5074235;28;20257;-80
2024/04/03 06:48:44;;;;;;;1.63;0.70;;;;;;;-145.69;45.86;52190.91;5074727;28;20245;-80
2024/04/03 06:51:20;;;;;;;0.93;0.80;;;;;;;-145.69;43.95;52163.19;5074339;28;20538;-80
2024/04/03 06:53:46;;;;;;;1.50;0.70;;;;;;;-145.69;45.25;52181.00;5074643;28;20202;-79
2024/04/03 06:56:17;;;;;;;2.23;0.90;;;;;;;-145.69;44.41;52117.63;5074285;28;20250;-80
2024/04/03 06:58:48;;;;;;;3.20;0.70;;;;;;;-145.69;44.87;52135.47;5074593;28;20226;-80
2024/04/03 07:01:19;;;;;;;0.70;0.67;;;;;;;-145.69;44.86;52109.72;5073926;28;20206;-80
2024/04/03 07:03:47;;;;;;;0.87;0.67;;;;;;;-145.69;43.71;52127.53;5072854;28;20676;-79
2024/04/03 07:06:22;;;;;;;2.00;0.80;;;;;;;-145.69;44.24;52179.03;5073855;28;20211;-80
2024/04/03 07:08:50;;;;;;;3.17;1.00;;;;;;;-145.69;44.59;52151.28;5073638;28;20232;-79
2024/04/03 07:11:19;;;;;;;1.30;0.80;;;;;;;-145.69;45.06;52137.44;5073796;28;20206;-79
2024/04/03 07:13:50;;;;;;;7.83;1.00;;;;;;;-145.69;45.27;52115.66;5074105;28;20217;-79
2024/04/03 07:16:18;;;;;;;0.77;0.77;;;;;;;-145.69;43.71;52147.34;5073381;28;20242;-79
2024/04/03 07:18:44;;;;;;;2.43;0.60;;;;;;;-145.69;43.51;52147.34;5073862;28;20295;-80
2024/04/03 07:21:14;;;;;;;2.35;0.80;;;;;;;-145.69;43.07;52107.72;5073743;28;20294;-80
2024/04/03 07:23:41;;;;;;;2.47;0.80;;;;;;;-145.69;42.17;52121.59;5074312;28;20210;-80
2024/04/03 07:26:16;;;;;;;5.87;3.27;;;;;;;-145.69;43.05;52119.63;5073218;28;20685;-79
2024/04/03 07:28:51;;;;;;;8.43;1.93;;;;;;;-145.69;42.85;52109.72;5072823;28;20194;-79
2024/04/03 07:31:20;;;;;;;2.22;1.40;;;;;;;-145.69;42.36;52131.50;5073567;28;20213;-78
2024/04/03 07:34:03;;;;;;;1.70;1.40;;;;;;;-145.69;41.94;52131.50;5073919;28;20199;-79
2024/04/03 07:36:43;;;;;;;1.98;1.10;;;;;;;-145.69;40.30;52097.84;5073393;28;20676;-79
2024/04/03 07:39:18;;;;;;;1.30;1.00;;;;;;;-145.69;40.76;52115.66;5073425;28;20202;-79
2024/04/03 07:41:53;;;;;;;2.25;0.95;;;;;;;-145.69;40.64;52101.78;5073749;28;20665;-80
2024/04/03 07:44:21;;;;;;;3.40;1.35;;;;;;;-145.69;39.82;52111.69;5073131;28;20589;-81
2024/04/03 07:46:49;;;;;;;1.17;0.77;;;;;;;-145.69;39.41;52085.94;5072835;28;20322;-80
2024/04/03 07:49:19;;;;;;;0.68;0.63;;;;;;;-145.69;38.88;52050.31;5072902;28;20249;-80
2024/04/03 07:51:49;;;;;;;0.80;0.60;;;;;;;-145.69;38.79;52087.94;5073661;28;20203;-80
2024/04/03 07:54:29;;;;;;;1.08;0.70;;;;;;;-145.69;38.71;52087.94;5072915;28;20195;-80
2024/04/03 07:56:55;;;;;;;2.67;0.63;;;;;;;-145.69;38.18;52111.69;5070967;28;20405;-81
2024/04/03 07:59:30;;;;;;;1.80;0.60;;;;;;;-145.69;38.60;52097.84;5072747;28;20658;-81
2024/04/03 08:02:01;;;;;;;2.08;0.65;;;;;;;-145.69;38.09;52068.13;5072501;28;20542;-81
2024/04/03 08:04:39;;;;;;;0.57;0.50;;;;;;;-145.69;37.83;52099.81;5073211;28;20557;-81
2024/04/03 08:07:08;;;;;;;2.72;0.70;;;;;;;-145.69;37.51;52050.31;5072482;28;20234;-80
2024/04/03 08:09:37;;;;;;;1.45;0.60;;;;;;;-145.69;36.66;52111.69;5072502;28;20681;-80
2024/04/03 08:12:03;;;;;;;3.03;0.60;;;;;;;-145.69;36.80;52080.00;5072698;28;20260;-79
2024/04/03 08:14:33;;;;;;;1.40;0.60;;;;;;;-145.69;37.04;52048.31;5057266;28;20206;-80
2024/04/03 08:17:00;;;;;;;0.60;0.50;;;;;;;-145.69;36.96;52056.25;5072206;28;20222;-80
2024/04/03 08:19:38;;;;;;;1.08;0.60;;;;;;;-145.69;36.89;52056.25;5072713;28;20202;-79
2024/04/03 08:22:11;;;;;;;2.85;0.68;;;;;;;-145.69;36.47;52050.31;5072641;28;20256;-80
2024/04/03 08:24:45;;;;;;;1.23;0.80;;;;;;;-145.69;36.82;52056.25;5072575;28;20202;-80
2024/04/03 08:27:13;;;;;;;1.25;0.80;;;;;;;-145.69;36.88;52046.34;5072350;28;20578;-81
2024/04/03 08:29:48;;;;;;;1.58;0.75;;;;;;;-145.69;36.46;52072.09;5072662;28;20208;-81
2024/04/03 08:32:16;;;;;;;1.50;0.65;;;;;;;-145.69;37.75;52070.09;5070654;28;20317;-80
2024/04/03 08:34:54;;;;;;;0.68;0.50;;;;;;;-145.69;36.81;52042.38;5072721;28;20301;-80
2024/04/03 08:37:20;;;;;;;3.05;0.65;;;;;;;-145.69;36.11;52032.47;5072202;28;20224;-80
2024/04/03 08:39:58;;;;;;;1.33;0.52;;;;;;;-145.69;36.20;52044.38;5072848;28;20234;-81
2024/04/03 08:42:26;;;;;;;1.58;0.63;;;;;;;-145.69;36.26;52062.19;5072476;28;20256;-80
2024/04/03 08:45:09;;;;;;;0.70;0.50;;;;;;;-145.69;36.14;52040.41;5072501;28;20209;-80
2024/04/03 08:47:38;;;;;;;1.52;0.80;;;;;;;-145.69;36.93;52050.31;5071687;28;20218;-80
2024/04/03 08:50:14;;;;;;;0.80;0.63;;;;;;;-145.69;36.99;52050.31;5071929;28;20560;-80
2024/04/03 08:52:42;;;;;;;1.98;0.80;;;;;;;-145.69;36.61;52054.25;5070001;28;20199;-79
2024/04/03 08:55:19;;;;;;;1.58;0.60;;;;;;;-145.69;36.96;52016.66;5072211;28;20199;-79
2024/04/03 08:57:50;;;;;;;1.92;0.70;;;;;;;-145.69;35.62;52054.25;5072461;28;20194;-80
2024/04/03 09:00:22;;;;;;;1.00;0.65;;;;;;;-145.69;35.59;52054.25;5072437;28;20199;-80
2024/04/03 09:03:05;;;;;;;2.50;0.70;;;;;;;-145.69;35.95;52044.38;5072441;28;20195;-80
2024/04/03 09:05:32;;;;;;;1.90;0.70;;;;;;;-145.69;36.83;52068.13;5064957;28;20202;-81
2024/04/03 09:08:02;;;;;;;1.80;0.60;;;;;;;-145.69;37.37;52052.28;5071472;28;20634;-80
2024/04/03 09:10:43;;;;;;;0.98;0.70;;;;;;;-145.69;36.83;52014.66;5072224;28;20202;-79
2024/04/03 09:13:13;;;;;;;0.65;0.50;;;;;;;-145.69;36.79;52026.53;5072221;28;20191;-80
2024/04/03 09:15:41;;;;;;;1.17;0.60;;;;;;;-145.69;36.65;52091.88;5071615;28;20960;-80
2024/04/03 09:18:10;;;;;;;4.28;0.60;;;;;;;-145.69;36.59;52046.34;5052179;28;20202;-79
2024/04/03 09:20:40;;;;;;;0.98;0.60;;;;;;;-145.69;35.99;52028.53;5067981;28;20191;-79
2024/04/03 09:23:13;;;;;;;0.40;0.40;;;;;;;-145.69;35.05;52002.78;5072165;28;20565;-80
2024/04/03 09:25:41;;;;;;;1.15;0.60;;;;;;;-145.69;34.86;52066.16;5071228;28;20210;-79
2024/04/03 09:28:12;;;;;;;0.85;0.40;;;;;;;-145.69;35.00;52016.66;5051780;28;20247;-80
2024/04/03 09:31:01;;;;;;;1.15;0.80;;;;;;;-145.69;35.80;52054.25;5051803;28;20234;-79
2024/04/03 09:33:30;;;;;;;0.57;0.55;;;;;;;-145.69;36.08;52068.13;5052121;28;20621;-79
2024/04/03 09:36:05;;;;;;;0.30;0.30;;;;;;;-145.69;35.81;52022.59;5054084;28;20688;-78
2024/04/03 09:38:34;;;;;;;1.13;0.60;;;;;;;-145.69;35.46;51994.88;5072261;28;20294;-79
2024/04/03 09:41:04;;;;;;;0.98;0.73;;;;;;;-145.69;36.08;52008.72;5071907;28;20199;-82
2024/04/03 09:43:33;;;;;;;0.50;0.50;;;;;;;-145.69;36.57;52026.53;5071832;28;20198;-80
2024/04/03 09:46:12;;;;;;;1.40;0.40;;;;;;;-145.69;36.16;52036.44;5071828;28;20202;-80
2024/04/03 09:48:39;;;;;;;1.02;0.47;;;;;;;-145.69;37.03;52020.59;5072138;28;20218;-80
2024/04/03 09:51:09;;;;;;;0.73;0.52;;;;;;;-145.69;37.19;52024.56;5069579;28;20285;-79
2024/04/03 09:53:35;;;;;;;0.73;0.40;;;;;;;-145.69;37.85;52064.16;5051907;28;20226;-79
2024/04/03 09:56:04;;;;;;;2.03;0.50;;;;;;;-145.69;38.24;52064.16;5070106;28;20206;-80
2024/04/03 09:58:35;;;;;;;0.75;0.60;;;;;;;-145.69;39.32;52076.03;5075324;28;20256;-80
2024/04/03 10:01:07;;;;;;;0.73;0.60;;;;;;;-145.69;39.53;52052.28;5075039;28;20199;-79
2024/04/03 10:03:38;;;;;;;2.40;0.70;;;;;;;-145.69;40.70;52050.31;5074870;28;20252;-80
2024/04/03 10:06:20;;;;;;;2.40;0.40;;;;;;;-145.69;40.96;52078.03;5074493;28;20663;-79
2024/04/03 10:08:49;;;;;;;0.65;0.50;;;;;;;-145.69;40.84;52072.09;5074747;28;20217;-79
2024/04/03 10:11:20;;;;;;;0.85;0.60;;;;;;;-145.69;42.44;52070.09;5072447;28;20198;-79
2024/04/03 10:13:46;;;;;;;0.75;0.50;;;;;;;-145.69;43.09;52111.69;5075464;28;20206;-79
2024/04/03 10:16:41;;;;;;;0.55;0.50;;;;;;;-145.69;45.14;52060.22;5070732;28;20229;-80
2024/04/03 10:19:09;;;;;;;2.22;0.63;;;;;;;-145.69;44.48;52089.91;5072469;28;20569;-80
2024/04/03 10:21:43;;;;;;;1.55;0.60;;;;;;;-145.69;43.76;52083.97;5073087;28;20202;-80
2024/04/03 10:24:11;;;;;;;2.47;0.70;;;;;;;-145.69;44.67;52087.94;5074383;28;20202;-79
2024/04/03 10:26:47;;;;;;;1.15;0.70;;;;;;;-145.69;45.32;52072.09;5074094;28;20313;-78
2024/04/03 10:29:17;;;;;;;1.30;0.55;;;;;;;-145.69;45.42;52095.84;5074802;28;20233;-79
2024/04/03 10:31:49;;;;;;;0.60;0.60;;;;;;;-145.69;45.55;52117.63;5074988;28;20274;-79
2024/04/03 10:34:17;;;;;;;1.65;0.50;;;;;;;-145.69;45.58;52101.78;5074573;28;20207;-78
2024/04/03 10:36:47;;;;;;;2.10;1.15;;;;;;;-145.69;46.49;52082.00;5059736;28;20259;-79
2024/04/03 10:39:13;;;;;;;2.58;0.93;;;;;;;-145.69;47.53;52072.09;5074766;28;20246;-79
2024/04/03 10:41:44;;;;;;;1.75;0.82;;;;;;;-145.69;46.81;52107.72;5074629;28;20234;-81
2024/04/03 10:44:24;;;;;;;0.55;0.55;;;;;;;-145.69;47.51;52083.97;5074564;28;20213;-81
2024/04/03 10:46:50;;;;;;;0.65;0.60;;;;;;;-145.69;48.32;52083.97;5054393;28;20238;-80
2024/04/03 10:49:16;;;;;;;1.38;0.50;;;;;;;-145.69;48.11;52091.88;5054700;28;20282;-78
2024/04/03 10:51:47;;;;;;;1.83;0.70;;;;;;;-145.69;47.11;52095.84;5054910;28;20623;-78
2024/04/03 10:54:16;;;;;;;0.75;0.50;;;;;;;-145.69;46.69;52080.00;5054634;28;20199;-79
2024/04/03 10:56:46;;;;;;;1.17;0.50;;;;;;;-145.69;46.56;52066.16;5074335;28;20206;-79
2024/04/03 10:59:17;;;;;;;0.40;0.40;;;;;;;-145.69;45.65;52091.88;5074203;28;20237;-81
2024/04/03 11:01:45;;;;;;;0.47;0.47;;;;;;;-145.69;46.46;52099.81;5074270;28;20248;-78
2024/04/03 11:04:13;;;;;;;0.70;0.47;;;;;;;-145.69;45.61;52129.50;5072408;28;20187;-78
2024/04/03 11:06:45;;;;;;;1.80;0.50;;;;;;;-145.69;46.06;52097.84;5090096;28;20692;-79
2024/04/03 11:09:18;;;;;;;0.55;0.50;;;;;;;-145.69;44.96;52099.81;5094446;28;20652;-79
2024/04/03 11:11:48;;;;;;;6.15;2.78;;;;;;;-145.69;45.40;52070.09;5094225;28;20606;-79
2024/04/03 11:14:27;;;;;;;7.72;3.75;;;;;;;-145.69;44.49;52089.91;5084521;28;20195;-79
2024/04/03 11:16:56;;;;;;;1.40;0.68;;;;;;;-145.69;44.42;52103.78;5073568;28;20258;-78
2024/04/03 11:19:24;;;;;;;0.63;0.63;;;;;;;-145.69;44.51;52087.94;5073787;28;20285;-79
2024/04/03 11:21:50;;;;;;;1.60;0.90;;;;;;;-145.69;43.70;52083.97;5074027;28;20205;-79
2024/04/03 11:24:19;;;;;;;0.60;0.60;;;;;;;-145.69;44.32;52083.97;5073318;28;20282;-79
2024/04/03 11:26:52;;;;;;;3.03;0.70;;;;;;;-145.69;42.87;52111.69;5073967;28;20277;-79
2024/04/03 11:29:30;;;;;;;0.82;0.70;;;;;;;-145.69;43.06;52095.84;5073699;28;20198;-78
2024/04/03 11:31:58;;;;;;;0.95;0.80;;;;;;;-145.69;42.93;52087.94;5073729;28;20206;-79
2024/04/03 11:34:31;;;;;;;2.70;0.50;;;;;;;-145.69;43.05;52103.78;5073165;28;20662;-79
2024/04/03 11:36:56;;;;;;;1.27;0.55;;;;;;;-145.69;43.10;52091.88;5073587;28;20237;-79
2024/04/03 11:39:24;;;;;;;1.05;0.57;;;;;;;-145.69;43.97;52083.97;5073889;28;20230;-79
2024/04/03 11:41:50;;;;;;;0.70;0.70;;;;;;;-145.69;44.01;52087.94;5073707;28;20249;-79
2024/04/03 11:44:18;;;;;;;1.40;0.68;;;;;;;-145.69;43.89;52119.63;5073511;28;20709;-79
2024/04/03 11:46:44;;;;;;;1.05;0.52;;;;;;;-145.69;43.35;52095.84;5073586;28;20258;-78